Time;durP1;ratioP1;P1;durP2;ratioP2;P2;SDS_P1;SDS_P2;PMS_P1;PMS_P2;Temp;Humidity;BMP_temperature;BMP_pressure;BME280_temperature;BME280_humidity;BME280_pressure;Samples;Min_cycle;Max_cycle;Signal;HPM_P1;HPM_P2
2022/08/03 00:01:05;;;;;;;12.95;8.82;;;;;;;;;;5091981;28;20027;-54
2022/08/03 00:03:31;;;;;;;11.52;9.13;;;;;;;;;;5077973;28;20074;-53
2022/08/03 00:05:57;;;;;;;13.68;9.68;;;;;;;;;;5073422;28;20044;-54
2022/08/03 00:08:23;;;;;;;12.33;9.23;;;;;;;;;;5088420;28;20031;-53
2022/08/03 00:10:49;;;;;;;15.87;10.37;;;;;;;;;;5093435;28;20335;-51
2022/08/03 00:13:15;;;;;;;10.43;8.95;;;;;;;;;;5082548;28;20027;-54
2022/08/03 00:15:42;;;;;;;11.05;9.88;;;;;;;;;;5092153;28;20061;-55
2022/08/03 00:18:08;;;;;;;10.55;9.43;;;;;;;;;;5087175;28;20408;-55
2022/08/03 00:20:35;;;;;;;10.52;9.52;;;;;;;;;;5073242;28;20119;-55
2022/08/03 00:23:01;;;;;;;15.10;10.05;;;;;;;;;;5077701;28;20048;-52
2022/08/03 00:25:27;;;;;;;11.73;10.52;;;;;;;;;;5092798;28;20089;-53
2022/08/03 00:27:53;;;;;;;10.90;8.93;;;;;;;;;;5087553;28;20024;-54
2022/08/03 00:30:19;;;;;;;16.87;10.33;;;;;;;;;;5081046;28;20047;-54
2022/08/03 00:32:45;;;;;;;13.80;9.85;;;;;;;;;;5089916;28;20271;-54
2022/08/03 00:35:11;;;;;;;15.87;10.33;;;;;;;;;;5075059;28;20055;-51
2022/08/03 00:37:37;;;;;;;15.55;9.57;;;;;;;;;;5088257;28;20262;-55
2022/08/03 00:40:03;;;;;;;18.47;9.47;;;;;;;;;;5071252;28;20055;-52
2022/08/03 00:42:29;;;;;;;18.20;9.93;;;;;;;;;;5072564;28;20039;-51
2022/08/03 00:44:55;;;;;;;13.90;9.70;;;;;;;;;;5091728;28;20027;-52
2022/08/03 00:47:21;;;;;;;10.88;8.75;;;;;;;;;;5092447;28;20061;-51
2022/08/03 00:49:48;;;;;;;11.73;8.65;;;;;;;;;;5072612;28;20020;-54
2022/08/03 00:52:15;;;;;;;10.15;9.20;;;;;;;;;;5072254;28;20037;-51
2022/08/03 00:54:41;;;;;;;10.60;9.48;;;;;;;;;;5090238;28;20111;-53
2022/08/03 00:57:08;;;;;;;13.60;9.63;;;;;;;;;;5074137;28;20024;-51
2022/08/03 00:59:35;;;;;;;13.43;9.95;;;;;;;;;;5085696;28;20040;-50
2022/08/03 01:02:01;;;;;;;14.15;9.82;;;;;;;;;;5092545;28;20059;-53
2022/08/03 01:04:27;;;;;;;11.30;10.07;;;;;;;;;;5092377;28;20401;-52
2022/08/03 01:07:00;;;;;;;12.75;10.02;;;;;;;;;;5088651;28;20474;-53
2022/08/03 01:09:37;;;;;;;11.48;10.25;;;;;;;;;;5073841;28;20028;-51
2022/08/03 01:12:07;;;;;;;11.63;10.43;;;;;;;;;;5072450;28;20023;-55
2022/08/03 01:14:36;;;;;;;15.55;10.60;;;;;;;;;;5084817;28;20032;-51
2022/08/03 01:17:23;;;;;;;11.73;10.07;;;;;;;;;;5090482;28;20052;-52
2022/08/03 01:19:53;;;;;;;15.20;10.35;;;;;;;;;;5071829;28;20028;-51
2022/08/03 01:22:38;;;;;;;15.73;10.43;;;;;;;;;;5071903;28;20376;-50
2022/08/03 01:25:13;;;;;;;12.13;10.18;;;;;;;;;;5051913;28;20025;-54
2022/08/03 01:27:51;;;;;;;10.40;9.32;;;;;;;;;;5059758;28;20032;-54
2022/08/03 01:30:18;;;;;;;11.35;10.05;;;;;;;;;;5076032;28;20031;-52
2022/08/03 01:33:19;;;;;;;15.70;10.23;;;;;;;;;;5070416;28;20028;-51
2022/08/03 01:35:52;;;;;;;10.75;9.30;;;;;;;;;;4993223;28;20054;-52
2022/08/03 01:38:23;;;;;;;11.55;10.15;;;;;;;;;;5077226;28;20088;-51
2022/08/03 01:40:50;;;;;;;10.80;9.80;;;;;;;;;;5087674;28;20413;-53
2022/08/03 01:43:19;;;;;;;11.68;10.07;;;;;;;;;;5079227;28;20035;-55
2022/08/03 01:45:45;;;;;;;12.10;10.43;;;;;;;;;;5091676;28;20410;-51
2022/08/03 01:48:15;;;;;;;10.88;9.48;;;;;;;;;;5085594;28;20073;-54
2022/08/03 01:50:42;;;;;;;11.88;10.15;;;;;;;;;;5071492;28;20383;-54
2022/08/03 01:53:08;;;;;;;;;;;;;;;;;;5077145;28;20370;-51
2022/08/03 01:55:34;;;;;;;10.93;9.82;;;;;;;;;;5092008;28;19961;-55
2022/08/03 01:58:00;;;;;;;;;;;;;;;;;;5088745;28;20485;-51
2022/08/03 02:00:27;;;;;;;13.52;10.32;;;;;;;;;;5071598;28;20393;-52
2022/08/03 02:02:54;;;;;;;12.18;10.98;;;;;;;;;;5076257;28;20020;-55
2022/08/03 02:05:21;;;;;;;17.48;10.40;;;;;;;;;;5090168;28;20051;-56
2022/08/03 02:07:48;;;;;;;13.02;11.10;;;;;;;;;;5082813;28;20027;-54
2022/08/03 02:10:15;;;;;;;11.95;10.63;;;;;;;;;;5090169;28;20032;-55
2022/08/03 02:12:44;;;;;;;14.75;10.70;;;;;;;;;;5088935;28;20016;-53
2022/08/03 02:15:10;;;;;;;13.80;10.68;;;;;;;;;;5071403;28;20028;-52
2022/08/03 02:17:37;;;;;;;11.38;10.27;;;;;;;;;;5070915;28;20032;-55
2022/08/03 02:20:04;;;;;;;12.48;11.27;;;;;;;;;;5051237;28;20112;-52
2022/08/03 02:22:30;;;;;;;;;;;;;;;;;;5057237;28;20020;-50
2022/08/03 02:24:57;;;;;;;10.85;9.75;;;;;;;;;;5078921;28;19912;-52
2022/08/03 02:27:24;;;;;;;12.80;9.82;;;;;;;;;;5071977;28;20028;-53
2022/08/03 02:29:49;;;;;;;;;;;;;;;;;;5076789;28;20028;-52
2022/08/03 02:32:19;;;;;;;10.95;9.57;;;;;;;;;;5072752;28;19905;-54
2022/08/03 02:34:47;;;;;;;11.45;9.95;;;;;;;;;;5073126;28;20033;-54
2022/08/03 02:37:14;;;;;;;12.23;9.43;;;;;;;;;;5074121;28;20029;-52
2022/08/03 02:39:41;;;;;;;12.25;10.27;;;;;;;;;;5077710;28;20039;-54
2022/08/03 02:42:08;;;;;;;10.43;9.40;;;;;;;;;;5075141;28;20107;-55
2022/08/03 02:44:35;;;;;;;13.13;10.15;;;;;;;;;;5074779;28;20134;-54
2022/08/03 02:47:06;;;;;;;10.63;9.57;;;;;;;;;;5074668;28;20047;-51
2022/08/03 02:49:33;;;;;;;12.23;8.45;;;;;;;;;;5086595;28;20501;-52
2022/08/03 02:51:59;;;;;;;9.68;8.65;;;;;;;;;;5085347;28;20462;-55
2022/08/03 02:54:26;;;;;;;9.77;8.05;;;;;;;;;;5084039;28;20103;-52
2022/08/03 02:56:54;;;;;;;8.50;7.63;;;;;;;;;;5093250;28;20024;-54
2022/08/03 02:59:20;;;;;;;8.95;8.05;;;;;;;;;;5094832;28;20085;-56
2022/08/03 03:01:47;;;;;;;9.32;8.43;;;;;;;;;;5077799;28;20027;-53
2022/08/03 03:04:13;;;;;;;8.63;7.63;;;;;;;;;;5074479;28;20040;-52
2022/08/03 03:06:41;;;;;;;9.98;8.35;;;;;;;;;;5090207;28;20566;-54
2022/08/03 03:09:07;;;;;;;9.35;8.45;;;;;;;;;;5094398;28;20028;-51
2022/08/03 03:11:35;;;;;;;14.07;8.75;;;;;;;;;;5088465;28;20024;-53
2022/08/03 03:14:02;;;;;;;12.23;8.60;;;;;;;;;;5074341;28;20056;-55
2022/08/03 03:16:29;;;;;;;10.45;7.55;;;;;;;;;;5089308;28;20470;-54
2022/08/03 03:18:56;;;;;;;8.90;7.97;;;29.00;49.80;;;;;;5092480;28;20039;-54
2022/08/03 03:21:22;;;;;;;9.80;7.55;;;25.50;61.90;;;;;;5073535;28;20499;-52
2022/08/03 03:23:49;;;;;;;11.65;8.32;;;;;;;;;;5073835;28;20391;-51
2022/08/03 03:26:15;;;;;;;10.75;9.18;;;;;;;;;;5073871;28;20035;-52
2022/08/03 03:28:41;;;;;;;10.10;8.18;;;;;;;;;;5090218;28;20021;-53
2022/08/03 03:31:08;;;;;;;8.55;7.75;;;;;;;;;;5093950;28;20051;-50
2022/08/03 03:33:34;;;;;;;8.52;7.70;;;;;;;;;;5094151;28;20075;-51
2022/08/03 03:36:00;;;;;;;9.88;7.97;;;;;;;;;;5084272;28;20056;-53
2022/08/03 03:38:27;;;;;;;9.07;8.02;;;;;;;;;;5073716;28;20032;-53
2022/08/03 03:40:53;;;;;;;9.82;7.60;;;;;;;;;;5073599;28;20191;-55
2022/08/03 03:43:19;;;;;;;9.85;8.85;;;;;;;;;;5074822;28;20036;-52
2022/08/03 03:45:47;;;;;;;12.87;8.40;;;;;;;;;;5083295;28;20556;-53
2022/08/03 03:48:13;;;;;;;11.20;8.07;;;;;;;;;;5073562;28;20304;-53
2022/08/03 03:50:39;;;;;;;10.43;8.70;;;;;;;;;;5074011;28;20029;-51
2022/08/03 03:53:08;;;;;;;12.63;8.27;;;;;;;;;;5073490;28;20112;-52
2022/08/03 03:55:35;;;;;;;13.18;9.23;;;;;;;;;;5073697;28;20545;-52
2022/08/03 03:58:02;;;;;;;13.60;8.73;;;;;;;;;;5083509;28;20056;-53
2022/08/03 04:00:28;;;;;;;16.75;9.05;;;;;;;;;;5082443;28;20494;-52
2022/08/03 04:02:54;;;;;;;13.23;9.50;;;;;;;;;;5074817;28;20502;-51
2022/08/03 04:10:57;;;;;;;11.88;10.05;;;;;;;;;;5073304;28;20043;-51
2022/08/03 04:13:24;;;;;;;9.48;8.57;;;;;;;;;;5073279;28;20475;-52
2022/08/03 04:15:51;;;;;;;9.65;7.85;;;;;;;;;;5072176;28;20029;-51
2022/08/03 04:18:18;;;;;;;13.65;8.50;;;;;;;;;;5071658;28;20095;-53
2022/08/03 04:20:46;;;;;;;12.60;9.65;;;;;;;;;;5073210;28;20502;-55
2022/08/03 04:23:13;;;;;;;13.35;8.90;;;;;;;;;;5073192;28;20024;-51
2022/08/03 04:25:39;;;;;;;11.95;9.25;;;;;;;;;;5073054;28;20078;-51
2022/08/03 04:28:06;;;;;;;16.00;9.25;;;;;;;;;;5072894;28;20052;-53
2022/08/03 04:30:32;;;;;;;;;;;;;;;;;;5073364;28;20117;-51
2022/08/03 04:32:58;;;;;;;11.40;9.73;;;;;;;;;;5072821;28;19943;-52
2022/08/03 04:35:26;;;;;;;13.68;9.77;;;;;;;;;;5072830;28;20060;-50
2022/08/03 04:37:54;;;;;;;10.00;9.13;;;;;;;;;;5072646;28;20028;-53
2022/08/03 04:40:49;;;;;;;9.85;8.88;;;25.30;61.80;;;;;;5072714;28;20643;-54
2022/08/03 04:43:18;;;;;;;11.77;9.82;;;24.00;68.10;;;;;;5054529;28;20513;-51
2022/08/03 04:45:48;;;;;;;12.73;9.70;;;23.80;67.70;;;;;;5072522;28;20496;-50
2022/08/03 04:48:14;;;;;;;12.20;9.82;;;23.90;67.80;;;;;;5072396;28;20089;-55
2022/08/03 04:50:41;;;;;;;15.82;10.80;;;;;;;;;;5072611;28;20044;-54
2022/08/03 04:53:07;;;;;;;14.20;9.70;;;;;;;;;;5073073;28;20494;-51
2022/08/03 04:55:34;;;;;;;11.82;9.93;;;;;;;;;;5071749;28;20471;-50
2022/08/03 04:58:01;;;;;;;11.32;9.80;;;;;;;;;;5072281;28;20032;-51
2022/08/03 05:00:27;;;;;;;15.77;9.57;;;;;;;;;;5072332;28;20032;-51
2022/08/03 05:02:54;;;;;;;9.88;8.95;;;;;;;;;;5070924;28;20043;-52
2022/08/03 05:05:20;;;;;;;13.75;9.63;;;;;;;;;;5070972;28;20033;-52
2022/08/03 05:07:46;;;;;;;10.18;9.05;;;;;;;;;;5072082;28;20466;-52
2022/08/03 05:10:13;;;;;;;13.30;10.15;;;;;;;;;;5072135;28;20035;-51
2022/08/03 05:12:39;;;;;;;11.98;9.27;;;;;;;;;;5072035;28;20067;-54
2022/08/03 05:15:05;;;;;;;15.60;10.82;;;;;;;;;;5070778;28;20124;-53
2022/08/03 05:17:32;;;;;;;10.55;9.48;;;;;;;;;;5071881;28;20371;-51
2022/08/03 05:19:58;;;;;;;;;;;;;;;;;;5072675;28;20032;-52
2022/08/03 05:22:24;;;;;;;15.65;10.45;;;;;;;;;;5071947;28;19909;-52
2022/08/03 05:24:50;;;;;;;17.80;10.93;;;;;;;;;;5070629;28;20501;-50
2022/08/03 05:27:18;;;;;;;13.87;10.17;;;;;;;;;;5071744;28;20108;-51
2022/08/03 05:29:47;;;;;;;19.90;10.15;;;;;;;;;;5071697;28;20016;-52
2022/08/03 05:32:13;;;;;;;11.32;9.82;;;;;;;;;;5071797;28;20467;-51
2022/08/03 05:34:39;;;;;;;15.52;11.05;;;;;;;;;;5071758;28;20514;-54
2022/08/03 05:37:06;;;;;;;17.75;10.13;;;;;;;;;;5075288;28;20037;-52
2022/08/03 05:39:32;;;;;;;11.52;10.32;;;;;;;;;;5081500;28;20029;-52
2022/08/03 05:41:58;;;;;;;12.82;8.73;;;23.90;68.00;;;;;;5081844;28;20036;-52
2022/08/03 05:44:24;;;;;;;10.00;8.93;;;;;;;;;;5071396;28;20107;-50
2022/08/03 05:46:51;;;;;;;10.15;8.73;;;;;;;;;;5067145;28;20258;-51
2022/08/03 05:49:17;;;;;;;14.55;9.68;;;;;;;;;;5075725;28;20074;-53
2022/08/03 05:51:43;;;;;;;16.35;9.07;;;;;;;;;;5091619;28;20047;-51
2022/08/03 05:54:09;;;;;;;13.33;9.30;;;;;;;;;;5073164;28;20082;-50
2022/08/03 05:56:35;;;;;;;11.07;8.52;;;;;;;;;;5071369;28;20258;-53
2022/08/03 05:59:02;;;;;;;13.60;7.78;;;;;;;;;;5071253;28;20056;-52
2022/08/03 06:01:28;;;;;;;13.23;8.57;;;;;;;;;;5071475;28;20085;-54
2022/08/03 06:03:54;;;;;;;9.48;8.10;;;;;;;;;;5071461;28;20028;-51
2022/08/03 06:06:21;;;;;;;11.80;8.43;;;;;;;;;;5074727;28;20075;-52
2022/08/03 06:08:47;;;;;;;15.00;8.93;;;;;;;;;;5078003;28;20525;-52
2022/08/03 06:11:13;;;;;;;8.82;7.82;;;;;;;;;;5077923;28;20391;-52
2022/08/03 06:13:40;;;;;;;12.40;7.57;;;;;;;;;;5077972;28;20111;-51
2022/08/03 06:16:06;;;;;;;12.68;7.55;;;;;;;;;;5078047;28;20024;-51
2022/08/03 06:18:32;;;;;;;13.57;7.10;;;;;;;;;;5077993;28;20028;-51
2022/08/03 06:20:58;;;;;;;13.10;7.13;;;;;;;;;;5078107;28;20052;-55
2022/08/03 06:23:24;;;;;;;10.85;7.30;;;;;;;;;;5077887;28;20471;-52
2022/08/03 06:25:50;;;;;;;7.70;6.28;;;;;;;;;;5077857;28;20478;-52
2022/08/03 06:28:17;;;;;;;8.38;6.10;;;;;;;;;;5077701;28;20052;-50
2022/08/03 06:30:43;;;;;;;13.05;5.97;;;;;;;;;;5078002;28;20100;-51
2022/08/03 06:33:09;;;;;;;7.50;5.55;;;;;;;;;;5077868;28;20032;-53
2022/08/03 06:35:35;;;;;;;6.65;4.72;;;;;;;;;;5077908;28;20556;-51
2022/08/03 06:38:02;;;;;;;9.80;6.03;;;;;;;;;;5077771;28;20062;-50
2022/08/03 06:40:30;;;;;;;12.48;5.68;;;;;;;;;;5077888;28;20059;-52
2022/08/03 06:43:00;;;;;;;10.18;4.43;;;;;;;;;;5077570;28;20035;-51
2022/08/03 06:45:27;;;;;;;6.20;4.55;;;;;;;;;;5077622;28;20020;-50
2022/08/03 06:48:19;;;;;;;5.00;4.50;;;;;;;;;;5077558;28;20028;-52
2022/08/03 06:50:45;;;;;;;5.85;3.95;;;;;;;;;;5075020;28;20059;-50
2022/08/03 06:53:11;;;;;;;11.18;4.45;;;;;;;;;;5077549;28;20032;-50
2022/08/03 06:55:38;;;;;;;7.35;3.88;;;;;;;;;;5077731;28;20024;-51
2022/08/03 06:58:04;;;;;;;8.10;3.75;;;;;;;;;;5077510;28;20035;-50
2022/08/03 07:00:30;;;;;;;6.30;3.90;;;;;;;;;;5077747;28;20028;-50
2022/08/03 07:02:56;;;;;;;5.05;4.15;;;;;;;;;;5077619;28;20372;-50
2022/08/03 07:05:22;;;;;;;7.05;4.53;;;;;;;;;;5077336;28;20020;-50
2022/08/03 07:07:48;;;;;;;7.72;4.90;;;;;;;;;;5077302;28;20081;-50
2022/08/03 07:10:14;;;;;;;10.23;4.88;;;;;;;;;;5077512;28;20012;-51
2022/08/03 07:12:40;;;;;;;5.50;3.72;;;;;;;;;;5077654;28;20452;-49
2022/08/03 07:15:07;;;;;;;9.20;4.20;;;;;;;;;;5077585;28;20394;-52
2022/08/03 07:17:33;;;;;;;;;;;;;;;;;;5075674;28;20025;-52
2022/08/03 07:20:00;;;;;;;6.82;4.38;;;;;;;;;;5072994;28;19905;-51
2022/08/03 07:22:27;;;;;;;5.90;3.55;;;;;;;;;;5074153;28;20024;-50
2022/08/03 07:24:53;;;;;;;6.55;3.40;;;;;;;;;;5074067;28;20029;-50
2022/08/03 07:27:19;;;;;;;5.32;3.22;;;;;;;;;;5073922;28;20021;-52
2022/08/03 07:29:45;;;;;;;7.28;3.72;;;;;;;;;;5074124;28;20322;-54
2022/08/03 07:32:11;;;;;;;6.68;3.28;;;;;;;;;;5074108;28;20025;-53
2022/08/03 07:34:37;;;;;;;5.90;2.28;;;;;;;;;;5073914;28;20492;-50
2022/08/03 07:37:03;;;;;;;6.05;3.25;;;;;;;;;;5073659;28;20137;-51
2022/08/03 07:39:29;;;;;;;5.70;2.78;;;;;;;;;;5073994;28;20028;-50
2022/08/03 07:41:55;;;;;;;5.78;2.70;;;;;;;;;;5072565;28;20033;-50
2022/08/03 07:44:21;;;;;;;4.15;2.85;;;;;;;;;;5073868;28;20024;-49
2022/08/03 07:46:47;;;;;;;6.93;2.40;;;;;;;;;;5073635;28;20395;-50
2022/08/03 07:49:13;;;;;;;4.22;1.58;;;;;;;;;;5073988;28;20024;-51
2022/08/03 07:51:39;;;;;;;10.52;2.70;;;;;;;;;;5073546;28;20036;-50
2022/08/03 07:54:06;;;;;;;3.80;1.85;;;;;;;;;;5073969;28;20028;-54
2022/08/03 07:56:32;;;;;;;3.83;1.92;;;;;;;;;;5073741;28;20028;-51
2022/08/03 07:58:58;;;;;;;4.88;2.20;;;;;;;;;;5073722;28;20059;-51
2022/08/03 08:01:24;;;;;;;6.30;1.58;;;;;;;;;;5072394;28;20021;-51
2022/08/03 08:03:50;;;;;;;3.13;1.90;;;;;;;;;;5073525;28;20035;-50
2022/08/03 08:06:17;;;;;;;9.35;2.65;;;;;;;;;;5073173;28;20021;-51
2022/08/03 08:08:43;;;;;;;6.82;2.00;;;;;;;;;;5073469;28;20020;-50
2022/08/03 08:11:09;;;;;;;6.53;2.03;;;;;;;;;;5073213;28;20050;-51
2022/08/03 08:13:37;;;;;;;4.65;2.15;;;;;;;;;;5073122;28;20033;-52
2022/08/03 08:16:03;;;;;;;2.92;2.03;;;;;;;;;;5073119;28;20103;-52
2022/08/03 08:18:29;;;;;;;7.85;2.15;;;;;;;;;;5073010;28;20036;-50
2022/08/03 08:20:55;;;;;;;3.63;1.85;;;;;;;;;;5073323;28;20082;-50
2022/08/03 08:23:22;;;;;;;5.80;2.28;;;;;;;;;;5073036;28;20029;-50
2022/08/03 08:25:49;;;;;;;1.80;1.70;;;;;;;;;;5073010;28;20470;-50
2022/08/03 08:28:15;;;;;;;;;;;;;;;;;;5073415;28;20398;-49
2022/08/03 08:30:41;;;;;;;7.47;2.38;;;;;;;;;;5071839;28;20379;-50
2022/08/03 08:33:07;;;;;;;6.63;1.60;;;;;;;;;;5072819;28;20478;-50
2022/08/03 08:35:33;;;;;;;4.88;1.80;;;;;;;;;;5073053;28;20051;-50
2022/08/03 08:38:00;;;;;;;3.67;1.90;;;;;;;;;;5071404;28;20364;-53
2022/08/03 08:40:26;;;;;;;3.53;2.05;;;;;;;;;;5072791;28;20044;-50
2022/08/03 08:42:53;;;;;;;3.05;1.92;;;;;;;;;;5072705;28;20522;-52
2022/08/03 08:45:19;;;;;;;4.50;1.92;;;;;;;;;;5072551;28;20025;-50
2022/08/03 08:47:46;;;;;;;4.50;2.03;;;;;;;;;;5072361;28;20024;-52
2022/08/03 08:50:12;;;;;;;5.38;1.65;;;;;;;;;;5072500;28;20017;-50
2022/08/03 08:52:43;;;;;;;5.45;1.90;;;;;;;;;;5072420;28;20032;-51
2022/08/03 08:55:09;;;;;;;5.68;1.77;;;;;;;;;;5072420;28;20028;-51
2022/08/03 08:57:37;;;;;;;7.00;1.90;;;;;;;;;;5072190;28;20039;-51
2022/08/03 09:00:09;;;;;;;17.63;11.07;;;;;;;;;;5072299;28;20032;-52
2022/08/03 09:02:35;;;;;;;7.75;2.55;;;;;;;;;;5071072;28;20423;-51
2022/08/03 09:05:01;;;;;;;3.25;1.90;;;;;;;;;;5072426;28;20059;-50
2022/08/03 09:07:27;;;;;;;2.88;1.70;;;;;;;;;;5072118;28;20078;-51
2022/08/03 09:09:54;;;;;;;2.55;1.70;;;;;;;;;;5072200;28;20425;-50
2022/08/03 09:12:20;;;;;;;9.10;2.65;;;;;;;;;;5072041;28;20048;-52
2022/08/03 09:14:46;;;;;;;4.28;2.05;;;;;;;;;;5072032;28;20060;-53
2022/08/03 09:17:12;;;;;;;4.53;2.22;;;;;;;;;;5071888;28;20052;-50
2022/08/03 09:19:38;;;;;;;8.02;2.03;;;;;;;;;;5072007;28;20090;-51
2022/08/03 09:22:08;;;;;;;7.90;2.85;;;;;;;;;;5071965;28;20429;-49
2022/08/03 09:24:35;;;;;;;4.93;1.95;;;;;;;;;;5071936;28;20031;-51
2022/08/03 09:27:01;;;;;;;1.70;1.60;;;;;;;;;;5071765;28;20020;-50
2022/08/03 09:29:31;;;;;;;8.32;2.45;;;;;;;;;;5071798;28;20107;-50
2022/08/03 09:32:02;;;;;;;7.20;2.20;;;;;;;;;;5071795;28;20017;-50
2022/08/03 09:34:28;;;;;;;2.28;1.85;;;;;;;;;;5071723;28;20443;-50
2022/08/03 09:36:56;;;;;;;5.80;1.88;;;;;;;;;;5071664;28;20028;-53
2022/08/03 09:39:23;;;;;;;4.30;1.65;;;;;;;;;;5071644;28;20566;-51
2022/08/03 09:42:08;;;;;;;6.80;2.65;;;;;;;;;;5071229;28;20028;-51
2022/08/03 09:44:38;;;;;;;2.00;1.77;;;;;;;;;;5071825;28;20040;-53
2022/08/03 09:47:05;;;;;;;4.82;1.92;;;;;;;;;;5071529;28;20505;-51
2022/08/03 09:49:31;;;;;;;2.03;1.80;;;;;;;;;;5071678;28;20024;-50
2022/08/03 09:51:57;;;;;;;;;;;;;;;;;;5071833;28;20035;-51
2022/08/03 09:54:27;;;;;;;6.57;3.80;;;;;;;;;;5071486;28;19904;-51
2022/08/03 09:56:53;;;;;;;5.95;1.70;;;;;;;;;;5071427;28;20024;-51
2022/08/03 09:59:27;;;;;;;3.38;1.40;;;;;;;;;;5071448;28;20162;-50
2022/08/03 10:01:53;;;;;;;4.63;1.55;;;;;;;;;;5072028;28;20028;-54
2022/08/03 10:04:19;;;;;;;6.32;1.90;;;;;;;;;;5071317;28;20482;-51
2022/08/03 10:07:00;;;;;;;5.55;1.80;;;;;;;;;;5071296;28;20036;-53
2022/08/03 10:09:26;;;;;;;5.30;1.88;;;;;;;;;;5071429;28;20397;-51
2022/08/03 10:11:52;;;;;;;5.75;2.33;;;;;;;;;;5071428;28;20028;-52
2022/08/03 10:14:19;;;;;;;2.38;1.60;;;;;;;;;;5071459;28;20386;-50
2022/08/03 10:16:45;;;;;;;3.03;1.73;;;;;;;;;;5071327;28;20063;-55
2022/08/03 10:19:12;;;;;;;;;;;;;;;;;;5071932;28;20029;-51
2022/08/03 10:21:40;;;;;;;2.42;1.42;;;;;;;;;;5071298;28;20303;-53
2022/08/03 10:24:07;;;;;;;8.35;2.15;;;;;;;;;;5071074;28;20399;-51
2022/08/03 10:26:34;;;;;;;3.28;1.50;;;;;;;;;;5071355;28;20020;-51
2022/08/03 10:29:02;;;;;;;6.07;1.77;;;;;;;;;;5071281;28;20387;-51
2022/08/03 10:31:34;;;;;;;2.05;1.67;;;;;;;;;;5071360;28;20074;-51
2022/08/03 10:34:01;;;;;;;1.30;1.17;;;;;;;;;;5071308;28;20621;-50
2022/08/03 10:36:30;;;;;;;2.42;1.40;;;;;;;;;;5071098;28;20021;-53
2022/08/03 10:38:56;;;;;;;6.60;1.42;;;;;;;;;;5071377;28;20032;-50
2022/08/03 10:41:29;;;;;;;4.82;1.60;;;;;;;;;;5070972;28;20510;-54
2022/08/03 10:43:55;;;;;;;2.33;1.08;;;;;;;;;;5071190;28;20052;-51
2022/08/03 10:46:22;;;;;;;4.38;1.35;;;;;;;;;;5071297;28;20032;-50
2022/08/03 10:48:51;;;;;;;2.63;1.38;;;;;;;;;;5071143;28;20052;-52
2022/08/03 10:51:18;;;;;;;2.40;1.52;;;;;;;;;;5071072;28;20021;-53
2022/08/03 10:53:44;;;;;;;5.60;1.42;;;;;;;;;;5096436;22;20048;-57
2022/08/03 10:59:14;;;;;;;2.60;1.92;;;;;;;;;;5074947;28;20435;-58
2022/08/03 11:01:53;;;;;;;4.43;1.40;;;;;;;;;;5074786;28;20494;-59
2022/08/03 11:04:20;;;;;;;4.10;1.52;;;;;;;;;;5054145;28;20507;-59
2022/08/03 11:06:47;;;;;;;1.58;1.35;;;;;;;;;;5053766;28;20057;-59
2022/08/03 11:09:15;;;;;;;2.90;1.60;;;;;;;;;;5059013;28;20029;-57
2022/08/03 11:11:42;;;;;;;5.30;1.60;;;;;;;;;;5056545;28;20025;-57
2022/08/03 11:14:08;;;;;;;4.57;1.52;;;;;;;;;;5056025;28;20060;-58
2022/08/03 11:16:36;;;;;;;2.13;1.67;;;;;;;;;;5054594;28;20036;-57
2022/08/03 11:19:07;;;;;;;5.78;1.98;;;;;;;;;;5052419;28;20110;-58
2022/08/03 11:21:48;;;;;;;1.52;1.42;;;;;;;;;;5060416;28;20445;-59
2022/08/03 11:24:33;;;;;;;2.38;1.45;;;;;;;;;;5051100;28;20025;-60
2022/08/03 11:27:17;;;;;;;4.60;1.50;;;;;;;;;;5055547;28;20045;-59
2022/08/03 11:30:02;;;;;;;4.40;1.75;;;;;;;;;;5062949;28;20103;-59
2022/08/03 11:32:42;;;;;;;1.95;1.50;;;;;;;;;;5052343;28;20399;-61
2022/08/03 11:35:08;;;;;;;1.63;1.50;;;;;;;;;;5053692;28;20029;-59
2022/08/03 11:37:34;;;;;;;2.25;1.38;;;;;;;;;;5053683;28;20029;-60
2022/08/03 11:40:00;;;;;;;1.67;1.40;;;;;;;;;;5053688;28;20040;-59
2022/08/03 11:42:27;;;;;;;4.00;1.33;;;;;;;;;;5053480;28;20125;-58
2022/08/03 11:44:57;;;;;;;5.15;1.50;;;;;;;;;;5053285;28;20102;-60
2022/08/03 11:47:25;;;;;;;2.80;1.48;;;;;;;;;;5052870;28;20104;-60
2022/08/03 11:49:54;;;;;;;2.03;1.30;;;;;;;;;;5051127;28;20029;-59
2022/08/03 11:52:21;;;;;;;3.08;1.75;;;;;;;;;;5049951;28;20023;-59
2022/08/03 11:54:46;;;;;;;;;;;;;;;;;;5053148;28;20037;-60
2022/08/03 11:57:28;;;;;;;2.50;1.83;;;;;;;;;;5052176;28;20000;-60
2022/08/03 11:59:54;;;;;;;2.58;1.30;;;;;;;;;;5053636;28;20102;-58
2022/08/03 12:02:20;;;;;;;2.30;1.67;;;;;;;;;;5053568;28;20029;-58
2022/08/03 12:04:53;;;;;;;3.30;1.40;;;;;;;;;;5053189;28;20063;-58
2022/08/03 12:07:19;;;;;;;3.67;1.20;;;;;;;;;;5052275;28;20032;-60
2022/08/03 12:09:45;;;;;;;;;;;;;;;;;;5052415;28;20021;-59
2022/08/03 12:12:15;;;;;;;2.40;1.58;;;;;;;;;;5053228;28;19958;-58
2022/08/03 12:14:46;;;;;;;3.10;1.63;;;;;;;;;;5053491;28;20032;-58
2022/08/03 12:17:12;;;;;;;2.97;1.60;;;;;;;;;;5053120;28;20087;-58
2022/08/03 12:19:41;;;;;;;1.48;1.30;;;;;;;;;;5053226;28;20406;-59
2022/08/03 12:22:07;;;;;;;3.17;1.42;;;;;;;;;;5053227;28;20040;-60
2022/08/03 12:24:41;;;;;;;3.55;1.83;;;;;;;;;;5052965;28;20086;-60
2022/08/03 12:27:07;;;;;;;2.35;1.23;;;;;;;;;;5052981;28;20032;-60
2022/08/03 12:29:33;;;;;;;2.50;1.33;;;;;;;;;;5053090;28;20029;-60
2022/08/03 12:31:59;;;;;;;1.58;1.20;;;;;;;;;;5053004;28;20024;-60
2022/08/03 12:34:44;;;;;;;5.72;1.60;;;;;;;;;;5052975;28;20028;-60
2022/08/03 12:37:10;;;;;;;2.35;1.33;;;;;;;;;;5052591;28;20027;-59
2022/08/03 12:39:36;;;;;;;3.17;1.10;;;;;;;;;;5051614;28;20032;-60
2022/08/03 12:42:03;;;;;;;1.73;1.30;;;;;;;;;;5052930;28;20029;-60
2022/08/03 12:44:34;;;;;;;6.32;1.25;;;;;;;;;;5053056;28;20443;-60
2022/08/03 12:47:00;;;;;;;2.35;1.20;;;;;;;;;;5052586;28;20111;-58
2022/08/03 12:49:26;;;;;;;;;;;;;;;;;;5052976;28;20025;-60
2022/08/03 12:51:52;;;;;;;2.35;1.27;;;;;;;;;;5051043;28;19905;-60
2022/08/03 12:54:20;;;;;;;4.35;1.55;;;;;;;;;;5052585;28;20082;-58
2022/08/03 12:57:02;;;;;;;1.83;1.45;;;;;;;;;;5052558;28;20096;-58
2022/08/03 12:59:48;;;;;;;1.38;1.20;;;;;;;;;;5052373;28;20049;-60
2022/08/03 13:02:16;;;;;;;2.00;1.23;;;;;;;;;;5052327;28;20031;-57
2022/08/03 13:04:42;;;;;;;1.45;1.08;;;;;;;;;;5052268;28;20403;-58
2022/08/03 13:07:09;;;;;;;6.38;1.60;;;;;;;;;;5052167;28;20028;-60
2022/08/03 13:09:52;;;;;;;1.48;1.30;;;;;;;;;;5052230;28;20455;-60
2022/08/03 13:12:19;;;;;;;2.97;1.70;;;;;;;;;;5052527;28;20032;-57
2022/08/03 13:14:47;;;;;;;2.13;1.60;;;;;;;;;;5051876;28;20029;-61
2022/08/03 13:17:13;;;;;;;5.68;1.55;;;;;;;;;;5051579;28;20498;-59
2022/08/03 13:19:39;;;;;;;5.72;1.50;;;;;;;;;;5052362;28;20386;-58
2022/08/03 13:22:15;;;;;;;2.28;1.17;;;;;;;;;;5051260;28;20033;-60
2022/08/03 13:24:42;;;;;;;5.20;1.40;;;;;;;;;;5054610;28;20435;-50
2022/08/03 13:27:08;;;;;;;3.28;1.10;;;;;;;;;;5069658;28;20056;-52
2022/08/03 13:29:34;;;;;;;;;;;;;;;;;;5072332;28;20028;-53
2022/08/03 13:32:04;;;;;;;1.48;1.38;;;;;;;;;;5053294;28;19908;-53
2022/08/03 13:34:30;;;;;;;2.50;1.48;;;;;;;;;;5050489;28;20032;-52
2022/08/03 13:36:56;;;;;;;3.10;1.33;;;;;;;;;;5063062;28;20028;-53
2022/08/03 13:39:22;;;;;;;1.30;1.13;;;;;;;;;;5068875;28;20481;-61
2022/08/03 13:41:49;;;;;;;14.25;1.88;;;;;;;;;;5051451;28;20498;-61
2022/08/03 13:44:15;;;;;;;2.92;1.40;;;;;;;;;;5051660;28;20025;-62
2022/08/03 13:46:41;;;;;;;2.60;1.25;;;;;;;;;;5058316;28;20033;-61
2022/08/03 13:49:07;;;;;;;2.15;1.10;;;;;;;;;;5053004;28;20036;-60
2022/08/03 13:51:34;;;;;;;5.32;1.30;;;;;;;;;;5052741;28;20078;-61
2022/08/03 13:54:01;;;;;;;13.68;1.30;;;;;;;;;;5057112;28;20083;-61
2022/08/03 13:56:27;;;;;;;3.95;1.73;;;;;;;;;;5051315;28;20090;-61
2022/08/03 13:58:53;;;;;;;7.25;1.30;;;;;;;;;;5051232;28;20091;-60
2022/08/03 14:01:19;;;;;;;3.88;1.40;;;;;;;;;;5045282;28;20469;-62
2022/08/03 14:03:47;;;;;;;1.30;1.20;;;;;;;;;;5050568;28;20483;-62
2022/08/03 14:06:13;;;;;;;8.38;1.67;;;;;;;;;;5051060;28;20025;-62
2022/08/03 14:08:40;;;;;;;5.40;1.30;;;;;;;;;;5051254;28;20035;-62
2022/08/03 14:11:06;;;;;;;4.55;1.65;;;;;;;;;;5051262;28;20031;-62
2022/08/03 14:13:32;;;;;;;1.23;1.17;;;;;;;;;;5052395;28;20040;-62
2022/08/03 14:15:58;;;;;;;13.30;1.58;;;;;;;;;;5051285;28;20029;-62
2022/08/03 14:18:24;;;;;;;7.00;1.38;;;;;;;;;;5067514;28;20060;-62
2022/08/03 14:20:50;;;;;;;3.38;1.20;;;;;;;;;;5051481;28;20022;-63
2022/08/03 14:23:16;;;;;;;4.15;1.75;;;;;;;;;;5052811;28;20021;-62
2022/08/03 14:25:43;;;;;;;3.10;1.70;;;;;;;;;;5071255;28;20081;-62
2022/08/03 14:28:09;;;;;;;2.30;1.30;;;;;;;;;;5073163;28;20506;-62
2022/08/03 14:30:35;;;;;;;2.05;1.30;;;;;;;;;;5055358;28;20402;-62
2022/08/03 14:33:01;;;;;;;2.80;1.67;;;;;;;;;;5055149;28;20028;-62
2022/08/03 14:35:27;;;;;;;5.90;1.95;;;;;;;;;;5074279;28;20114;-62
2022/08/03 14:37:53;;;;;;;8.77;1.77;;;;;;;;;;5074473;28;20028;-62
2022/08/03 14:40:20;;;;;;;2.22;1.30;;;;;;;;;;5055096;28;20024;-62
2022/08/03 14:42:46;;;;;;;4.78;2.33;;;;;;;;;;5055092;28;20033;-62
2022/08/03 14:45:12;;;;;;;4.75;1.83;;;;;;;;;;5070715;28;20490;-62
2022/08/03 14:47:39;;;;;;;8.85;1.70;;;;;;;;;;5054735;28;20033;-62
2022/08/03 14:50:05;;;;;;;3.00;1.20;;;;;;;;;;5072188;28;20109;-62